sensor_id;sensor_type;location;lat;lon;timestamp;temperature;humidity
20839;DHT22;10580;51.092;6.828;2023-05-17T00:00:09;9.20;1.00
20839;DHT22;10580;51.092;6.828;2023-05-17T00:02:36;9.20;1.00
20839;DHT22;10580;51.092;6.828;2023-05-17T00:05:02;9.10;1.00
20839;DHT22;10580;51.092;6.828;2023-05-17T00:07:27;9.10;1.00
20839;DHT22;10580;51.092;6.828;2023-05-17T00:09:53;9.10;1.00
20839;DHT22;10580;51.092;6.828;2023-05-17T00:12:19;9.10;1.00
20839;DHT22;10580;51.092;6.828;2023-05-17T00:14:44;9.00;1.00
20839;DHT22;10580;51.092;6.828;2023-05-17T00:17:10;9.00;1.00
20839;DHT22;10580;51.092;6.828;2023-05-17T00:19:35;9.00;1.00
20839;DHT22;10580;51.092;6.828;2023-05-17T00:22:01;9.00;1.00
20839;DHT22;10580;51.092;6.828;2023-05-17T00:24:27;9.00;1.00
20839;DHT22;10580;51.092;6.828;2023-05-17T00:26:52;9.10;1.00
20839;DHT22;10580;51.092;6.828;2023-05-17T00:29:18;9.10;1.00
20839;DHT22;10580;51.092;6.828;2023-05-17T00:31:43;9.00;1.00
20839;DHT22;10580;51.092;6.828;2023-05-17T00:34:09;9.00;1.00
20839;DHT22;10580;51.092;6.828;2023-05-17T00:36:34;9.00;1.00
20839;DHT22;10580;51.092;6.828;2023-05-17T00:39:00;9.00;1.00
20839;DHT22;10580;51.092;6.828;2023-05-17T00:41:26;9.00;1.00
20839;DHT22;10580;51.092;6.828;2023-05-17T00:43:51;8.90;1.00
20839;DHT22;10580;51.092;6.828;2023-05-17T00:46:17;8.90;1.00
20839;DHT22;10580;51.092;6.828;2023-05-17T00:48:43;8.90;1.00
20839;DHT22;10580;51.092;6.828;2023-05-17T00:51:09;8.90;1.00
20839;DHT22;10580;51.092;6.828;2023-05-17T00:53:35;8.80;1.00
20839;DHT22;10580;51.092;6.828;2023-05-17T00:56:02;8.80;1.00
20839;DHT22;10580;51.092;6.828;2023-05-17T00:58:28;8.80;1.00
20839;DHT22;10580;51.092;6.828;2023-05-17T01:00:54;8.70;1.00
20839;DHT22;10580;51.092;6.828;2023-05-17T01:03:20;8.70;1.00
20839;DHT22;10580;51.092;6.828;2023-05-17T01:05:49;8.70;1.00
20839;DHT22;10580;51.092;6.828;2023-05-17T01:08:15;8.60;1.00
20839;DHT22;10580;51.092;6.828;2023-05-17T01:13:57;8.60;1.00
20839;DHT22;10580;51.092;6.828;2023-05-17T01:19:49;8.50;1.00
20839;DHT22;10580;51.092;6.828;2023-05-17T01:22:26;8.50;1.00
20839;DHT22;10580;51.092;6.828;2023-05-17T01:27:21;8.40;1.00
20839;DHT22;10580;51.092;6.828;2023-05-17T01:29:49;8.40;1.00
20839;DHT22;10580;51.092;6.828;2023-05-17T01:32:17;8.40;1.00
20839;DHT22;10580;51.092;6.828;2023-05-17T01:34:43;8.40;1.00
20839;DHT22;10580;51.092;6.828;2023-05-17T01:37:09;8.30;1.00
20839;DHT22;10580;51.092;6.828;2023-05-17T01:39:34;8.30;6.00
20839;DHT22;10580;51.092;6.828;2023-05-17T01:42:21;8.20;57.90
20839;DHT22;10580;51.092;6.828;2023-05-17T01:45:23;8.30;99.90
20839;DHT22;10580;51.092;6.828;2023-05-17T01:50:40;8.10;99.90
20839;DHT22;10580;51.092;6.828;2023-05-17T01:53:31;8.10;99.90
20839;DHT22;10580;51.092;6.828;2023-05-17T01:56:26;8.10;99.90
20839;DHT22;10580;51.092;6.828;2023-05-17T01:58:53;8.10;99.90
20839;DHT22;10580;51.092;6.828;2023-05-17T02:01:21;8.00;99.90
20839;DHT22;10580;51.092;6.828;2023-05-17T02:03:49;8.00;99.90
20839;DHT22;10580;51.092;6.828;2023-05-17T02:06:15;7.90;1.00
20839;DHT22;10580;51.092;6.828;2023-05-17T02:08:41;7.90;1.00
20839;DHT22;10580;51.092;6.828;2023-05-17T02:11:07;7.90;1.00
20839;DHT22;10580;51.092;6.828;2023-05-17T02:13:32;7.80;1.00
20839;DHT22;10580;51.092;6.828;2023-05-17T02:16:02;7.80;1.00
20839;DHT22;10580;51.092;6.828;2023-05-17T02:18:28;7.70;1.00
20839;DHT22;10580;51.092;6.828;2023-05-17T02:20:55;7.70;1.00
20839;DHT22;10580;51.092;6.828;2023-05-17T02:23:21;7.70;1.00
20839;DHT22;10580;51.092;6.828;2023-05-17T02:25:46;7.70;1.00
20839;DHT22;10580;51.092;6.828;2023-05-17T02:28:12;7.60;1.00
20839;DHT22;10580;51.092;6.828;2023-05-17T02:30:38;7.60;1.00
20839;DHT22;10580;51.092;6.828;2023-05-17T02:33:07;7.60;1.00
20839;DHT22;10580;51.092;6.828;2023-05-17T02:35:33;7.60;1.00
20839;DHT22;10580;51.092;6.828;2023-05-17T02:37:59;7.60;92.30
20839;DHT22;10580;51.092;6.828;2023-05-17T02:40:24;7.50;99.90
20839;DHT22;10580;51.092;6.828;2023-05-17T02:42:50;7.50;99.90
20839;DHT22;10580;51.092;6.828;2023-05-17T02:45:16;7.50;99.90
20839;DHT22;10580;51.092;6.828;2023-05-17T02:47:41;7.50;99.90
20839;DHT22;10580;51.092;6.828;2023-05-17T02:50:07;7.50;1.00
20839;DHT22;10580;51.092;6.828;2023-05-17T02:52:33;7.40;1.00
20839;DHT22;10580;51.092;6.828;2023-05-17T02:54:59;7.40;1.00
20839;DHT22;10580;51.092;6.828;2023-05-17T02:57:25;7.40;1.00
20839;DHT22;10580;51.092;6.828;2023-05-17T02:59:50;7.40;99.90
20839;DHT22;10580;51.092;6.828;2023-05-17T03:02:16;7.40;99.90
20839;DHT22;10580;51.092;6.828;2023-05-17T03:04:41;7.40;99.90
20839;DHT22;10580;51.092;6.828;2023-05-17T03:07:07;7.40;99.90
20839;DHT22;10580;51.092;6.828;2023-05-17T03:09:33;7.40;99.90
20839;DHT22;10580;51.092;6.828;2023-05-17T03:11:58;7.40;99.90
20839;DHT22;10580;51.092;6.828;2023-05-17T03:14:24;7.30;99.90
20839;DHT22;10580;51.092;6.828;2023-05-17T03:16:50;7.30;99.90
20839;DHT22;10580;51.092;6.828;2023-05-17T03:19:15;7.30;99.90
20839;DHT22;10580;51.092;6.828;2023-05-17T03:21:41;7.30;94.60
20839;DHT22;10580;51.092;6.828;2023-05-17T03:24:06;7.20;68.50
20839;DHT22;10580;51.092;6.828;2023-05-17T03:26:32;7.20;99.90
20839;DHT22;10580;51.092;6.828;2023-05-17T03:28:58;7.20;99.90
20839;DHT22;10580;51.092;6.828;2023-05-17T03:31:24;7.20;99.90
20839;DHT22;10580;51.092;6.828;2023-05-17T03:33:50;7.20;99.90
20839;DHT22;10580;51.092;6.828;2023-05-17T03:36:15;7.30;99.90
20839;DHT22;10580;51.092;6.828;2023-05-17T03:38:41;7.30;99.90
20839;DHT22;10580;51.092;6.828;2023-05-17T03:41:06;7.30;1.00
20839;DHT22;10580;51.092;6.828;2023-05-17T03:43:32;7.40;1.00
20839;DHT22;10580;51.092;6.828;2023-05-17T03:45:58;7.40;1.00
20839;DHT22;10580;51.092;6.828;2023-05-17T03:48:23;7.50;1.00
20839;DHT22;10580;51.092;6.828;2023-05-17T03:50:49;7.50;1.00
20839;DHT22;10580;51.092;6.828;2023-05-17T03:53:14;7.50;1.00
20839;DHT22;10580;51.092;6.828;2023-05-17T03:55:40;7.50;1.00
20839;DHT22;10580;51.092;6.828;2023-05-17T03:58:06;7.50;1.00
20839;DHT22;10580;51.092;6.828;2023-05-17T04:00:31;7.50;1.00
20839;DHT22;10580;51.092;6.828;2023-05-17T04:02:57;7.50;1.00
20839;DHT22;10580;51.092;6.828;2023-05-17T04:05:23;7.50;1.00
20839;DHT22;10580;51.092;6.828;2023-05-17T04:07:48;7.50;1.00
20839;DHT22;10580;51.092;6.828;2023-05-17T04:10:14;7.50;1.00
20839;DHT22;10580;51.092;6.828;2023-05-17T04:12:40;7.60;1.00
20839;DHT22;10580;51.092;6.828;2023-05-17T04:15:06;7.60;1.00
20839;DHT22;10580;51.092;6.828;2023-05-17T04:17:32;7.70;1.00
20839;DHT22;10580;51.092;6.828;2023-05-17T04:19:57;7.80;1.00
20839;DHT22;10580;51.092;6.828;2023-05-17T04:22:23;7.90;1.00
20839;DHT22;10580;51.092;6.828;2023-05-17T04:24:48;7.90;1.00
20839;DHT22;10580;51.092;6.828;2023-05-17T04:27:14;8.00;1.00
20839;DHT22;10580;51.092;6.828;2023-05-17T04:29:40;8.10;1.00
20839;DHT22;10580;51.092;6.828;2023-05-17T04:32:06;8.10;1.00
20839;DHT22;10580;51.092;6.828;2023-05-17T04:34:32;8.20;1.00
20839;DHT22;10580;51.092;6.828;2023-05-17T04:36:58;8.20;1.00
20839;DHT22;10580;51.092;6.828;2023-05-17T04:39:23;8.20;1.00
20839;DHT22;10580;51.092;6.828;2023-05-17T04:41:49;8.30;99.90
20839;DHT22;10580;51.092;6.828;2023-05-17T04:44:15;8.30;99.90
20839;DHT22;10580;51.092;6.828;2023-05-17T04:46:41;8.30;99.90
20839;DHT22;10580;51.092;6.828;2023-05-17T04:49:08;8.50;99.90
20839;DHT22;10580;51.092;6.828;2023-05-17T04:51:34;8.50;99.90
20839;DHT22;10580;51.092;6.828;2023-05-17T04:54:00;8.60;99.90
20839;DHT22;10580;51.092;6.828;2023-05-17T04:56:26;8.80;99.90
20839;DHT22;10580;51.092;6.828;2023-05-17T04:58:52;8.90;10.50
20839;DHT22;10580;51.092;6.828;2023-05-17T05:01:18;9.10;1.00
20839;DHT22;10580;51.092;6.828;2023-05-17T05:03:44;9.30;1.00
20839;DHT22;10580;51.092;6.828;2023-05-17T05:06:10;9.30;1.00
20839;DHT22;10580;51.092;6.828;2023-05-17T05:08:36;9.20;99.90
20839;DHT22;10580;51.092;6.828;2023-05-17T05:11:02;9.10;99.90
20839;DHT22;10580;51.092;6.828;2023-05-17T05:13:28;9.00;99.90
20839;DHT22;10580;51.092;6.828;2023-05-17T05:15:54;9.00;99.90
20839;DHT22;10580;51.092;6.828;2023-05-17T05:18:19;8.90;99.90
20839;DHT22;10580;51.092;6.828;2023-05-17T05:20:47;8.90;99.90
20839;DHT22;10580;51.092;6.828;2023-05-17T05:23:12;8.90;1.00
20839;DHT22;10580;51.092;6.828;2023-05-17T05:25:38;8.80;1.00
20839;DHT22;10580;51.092;6.828;2023-05-17T05:28:04;8.90;1.00
20839;DHT22;10580;51.092;6.828;2023-05-17T05:30:31;8.90;1.00
20839;DHT22;10580;51.092;6.828;2023-05-17T05:32:56;9.00;1.00
20839;DHT22;10580;51.092;6.828;2023-05-17T05:35:22;9.00;1.00
20839;DHT22;10580;51.092;6.828;2023-05-17T05:37:53;9.10;1.00
20839;DHT22;10580;51.092;6.828;2023-05-17T05:40:19;9.20;1.00
20839;DHT22;10580;51.092;6.828;2023-05-17T05:42:45;9.20;1.00
20839;DHT22;10580;51.092;6.828;2023-05-17T05:45:10;9.50;1.00
20839;DHT22;10580;51.092;6.828;2023-05-17T05:47:36;9.90;1.00
20839;DHT22;10580;51.092;6.828;2023-05-17T05:50:02;10.10;99.90
20839;DHT22;10580;51.092;6.828;2023-05-17T05:52:28;10.20;1.00
20839;DHT22;10580;51.092;6.828;2023-05-17T05:54:54;10.20;1.00
20839;DHT22;10580;51.092;6.828;2023-05-17T05:57:19;10.90;1.00
20839;DHT22;10580;51.092;6.828;2023-05-17T05:59:45;12.20;1.00
20839;DHT22;10580;51.092;6.828;2023-05-17T06:02:10;14.20;99.90
20839;DHT22;10580;51.092;6.828;2023-05-17T06:04:40;15.90;10.90
20839;DHT22;10580;51.092;6.828;2023-05-17T06:07:06;17.10;1.00
20839;DHT22;10580;51.092;6.828;2023-05-17T06:09:31;18.10;1.00
20839;DHT22;10580;51.092;6.828;2023-05-17T06:11:57;18.80;1.00
20839;DHT22;10580;51.092;6.828;2023-05-17T06:14:23;19.00;1.00
20839;DHT22;10580;51.092;6.828;2023-05-17T06:19:59;19.20;1.00
20839;DHT22;10580;51.092;6.828;2023-05-17T06:25:57;19.30;1.00
20839;DHT22;10580;51.092;6.828;2023-05-17T06:28:23;20.20;1.00
20839;DHT22;10580;51.092;6.828;2023-05-17T06:30:48;20.50;1.00
20839;DHT22;10580;51.092;6.828;2023-05-17T06:33:14;20.10;1.00
20839;DHT22;10580;51.092;6.828;2023-05-17T06:35:40;20.00;1.00
20839;DHT22;10580;51.092;6.828;2023-05-17T06:38:06;20.00;1.00
20839;DHT22;10580;51.092;6.828;2023-05-17T06:40:34;20.60;1.00
20839;DHT22;10580;51.092;6.828;2023-05-17T06:43:00;20.80;1.00
20839;DHT22;10580;51.092;6.828;2023-05-17T06:45:27;21.30;1.00
20839;DHT22;10580;51.092;6.828;2023-05-17T06:47:58;20.20;1.00
20839;DHT22;10580;51.092;6.828;2023-05-17T06:50:30;19.40;1.00
20839;DHT22;10580;51.092;6.828;2023-05-17T06:52:58;19.10;1.00
20839;DHT22;10580;51.092;6.828;2023-05-17T06:55:35;19.30;1.00
20839;DHT22;10580;51.092;6.828;2023-05-17T06:58:14;19.50;1.00
20839;DHT22;10580;51.092;6.828;2023-05-17T07:00:39;19.00;1.00
20839;DHT22;10580;51.092;6.828;2023-05-17T07:03:07;19.20;1.00
20839;DHT22;10580;51.092;6.828;2023-05-17T07:05:35;19.00;1.00
20839;DHT22;10580;51.092;6.828;2023-05-17T07:08:09;19.10;1.00
20839;DHT22;10580;51.092;6.828;2023-05-17T07:10:50;19.10;1.00
20839;DHT22;10580;51.092;6.828;2023-05-17T07:13:25;18.50;1.00
20839;DHT22;10580;51.092;6.828;2023-05-17T07:15:53;17.50;1.00
20839;DHT22;10580;51.092;6.828;2023-05-17T07:18:29;17.20;1.00
20839;DHT22;10580;51.092;6.828;2023-05-17T07:21:05;16.60;1.00
20839;DHT22;10580;51.092;6.828;2023-05-17T07:23:48;17.40;1.00
20839;DHT22;10580;51.092;6.828;2023-05-17T07:26:22;18.00;1.00
20839;DHT22;10580;51.092;6.828;2023-05-17T07:31:32;16.70;1.00
20839;DHT22;10580;51.092;6.828;2023-05-17T07:33:58;15.60;1.00
20839;DHT22;10580;51.092;6.828;2023-05-17T07:36:29;15.40;1.00
20839;DHT22;10580;51.092;6.828;2023-05-17T07:38:56;15.00;1.00
20839;DHT22;10580;51.092;6.828;2023-05-17T07:41:22;14.80;1.00
20839;DHT22;10580;51.092;6.828;2023-05-17T07:43:51;15.10;1.00
20839;DHT22;10580;51.092;6.828;2023-05-17T07:46:25;14.90;1.00
20839;DHT22;10580;51.092;6.828;2023-05-17T07:49:21;14.50;1.00
20839;DHT22;10580;51.092;6.828;2023-05-17T07:51:49;14.10;1.00
20839;DHT22;10580;51.092;6.828;2023-05-17T07:54:27;14.20;1.00
20839;DHT22;10580;51.092;6.828;2023-05-17T07:57:03;15.40;1.00
20839;DHT22;10580;51.092;6.828;2023-05-17T08:00:07;16.00;1.00
20839;DHT22;10580;51.092;6.828;2023-05-17T08:02:39;16.80;1.00
20839;DHT22;10580;51.092;6.828;2023-05-17T08:05:05;17.10;1.00
20839;DHT22;10580;51.092;6.828;2023-05-17T08:07:49;17.30;1.00
20839;DHT22;10580;51.092;6.828;2023-05-17T08:10:16;16.90;1.00
20839;DHT22;10580;51.092;6.828;2023-05-17T08:12:50;16.50;1.00
20839;DHT22;10580;51.092;6.828;2023-05-17T08:15:24;16.80;1.00
20839;DHT22;10580;51.092;6.828;2023-05-17T08:18:03;17.70;1.00
20839;DHT22;10580;51.092;6.828;2023-05-17T08:20:35;17.70;1.00
20839;DHT22;10580;51.092;6.828;2023-05-17T08:23:07;16.80;1.00
20839;DHT22;10580;51.092;6.828;2023-05-17T08:25:35;16.20;1.00
20839;DHT22;10580;51.092;6.828;2023-05-17T08:28:00;15.40;1.00
20839;DHT22;10580;51.092;6.828;2023-05-17T08:30:29;14.90;1.00
20839;DHT22;10580;51.092;6.828;2023-05-17T08:35:54;14.60;1.00
20839;DHT22;10580;51.092;6.828;2023-05-17T08:38:46;14.50;1.00
20839;DHT22;10580;51.092;6.828;2023-05-17T08:41:12;14.60;1.00
20839;DHT22;10580;51.092;6.828;2023-05-17T08:43:38;15.50;1.00
20839;DHT22;10580;51.092;6.828;2023-05-17T08:49:05;16.30;1.00
20839;DHT22;10580;51.092;6.828;2023-05-17T08:54:25;15.60;1.00
20839;DHT22;10580;51.092;6.828;2023-05-17T08:57:09;15.80;1.00
20839;DHT22;10580;51.092;6.828;2023-05-17T08:59:57;16.60;1.00
20839;DHT22;10580;51.092;6.828;2023-05-17T09:02:23;17.70;1.00
20839;DHT22;10580;51.092;6.828;2023-05-17T09:05:18;17.90;1.00
20839;DHT22;10580;51.092;6.828;2023-05-17T09:11:50;16.90;1.00
20839;DHT22;10580;51.092;6.828;2023-05-17T09:28:51;16.60;1.00
20839;DHT22;10580;51.092;6.828;2023-05-17T09:35:13;16.70;1.00
20839;DHT22;10580;51.092;6.828;2023-05-17T09:37:44;16.70;1.00
20839;DHT22;10580;51.092;6.828;2023-05-17T09:40:31;16.50;1.00
20839;DHT22;10580;51.092;6.828;2023-05-17T09:42:58;16.50;1.00
20839;DHT22;10580;51.092;6.828;2023-05-17T09:49:16;16.50;1.00
20839;DHT22;10580;51.092;6.828;2023-05-17T09:51:51;16.80;1.00
20839;DHT22;10580;51.092;6.828;2023-05-17T10:01:39;18.40;1.00
20839;DHT22;10580;51.092;6.828;2023-05-17T10:15:16;19.00;1.00
20839;DHT22;10580;51.092;6.828;2023-05-17T10:18:06;19.10;1.00
20839;DHT22;10580;51.092;6.828;2023-05-17T10:27:23;17.10;1.00
20839;DHT22;10580;51.092;6.828;2023-05-17T10:30:03;16.70;1.00
20839;DHT22;10580;51.092;6.828;2023-05-17T10:32:40;17.00;1.00
20839;DHT22;10580;51.092;6.828;2023-05-17T10:41:14;18.20;1.00
20839;DHT22;10580;51.092;6.828;2023-05-17T10:43:42;18.30;1.00
20839;DHT22;10580;51.092;6.828;2023-05-17T10:46:15;17.80;1.00
20839;DHT22;10580;51.092;6.828;2023-05-17T10:48:41;17.60;1.00
20839;DHT22;10580;51.092;6.828;2023-05-17T10:51:30;17.90;1.00
20839;DHT22;10580;51.092;6.828;2023-05-17T10:54:18;18.00;1.00
20839;DHT22;10580;51.092;6.828;2023-05-17T10:57:17;18.10;1.00
20839;DHT22;10580;51.092;6.828;2023-05-17T10:59:57;18.30;1.00
20839;DHT22;10580;51.092;6.828;2023-05-17T11:02:45;18.50;1.00
20839;DHT22;10580;51.092;6.828;2023-05-17T11:05:28;18.20;1.00
20839;DHT22;10580;51.092;6.828;2023-05-17T11:08:17;18.20;1.00
20839;DHT22;10580;51.092;6.828;2023-05-17T11:14:25;18.10;1.00
20839;DHT22;10580;51.092;6.828;2023-05-17T11:17:33;18.30;1.00
20839;DHT22;10580;51.092;6.828;2023-05-17T11:33:57;18.20;1.00
20839;DHT22;10580;51.092;6.828;2023-05-17T12:04:52;17.90;1.00
20839;DHT22;10580;51.092;6.828;2023-05-17T12:08:05;18.00;1.00
20839;DHT22;10580;51.092;6.828;2023-05-17T12:43:45;18.50;1.00
20839;DHT22;10580;51.092;6.828;2023-05-17T13:09:28;19.40;1.00
20839;DHT22;10580;51.092;6.828;2023-05-17T13:15:34;19.50;1.00
20839;DHT22;10580;51.092;6.828;2023-05-17T13:37:01;19.00;1.00
20839;DHT22;10580;51.092;6.828;2023-05-17T13:39:27;18.90;1.00
20839;DHT22;10580;51.092;6.828;2023-05-17T13:41:58;19.00;1.00
20839;DHT22;10580;51.092;6.828;2023-05-17T13:44:24;19.10;1.00
20839;DHT22;10580;51.092;6.828;2023-05-17T13:46:50;19.10;1.00
20839;DHT22;10580;51.092;6.828;2023-05-17T13:49:26;19.10;1.00
20839;DHT22;10580;51.092;6.828;2023-05-17T13:51:52;19.00;1.00
20839;DHT22;10580;51.092;6.828;2023-05-17T13:54:18;18.90;1.00
20839;DHT22;10580;51.092;6.828;2023-05-17T13:56:45;18.90;1.00
20839;DHT22;10580;51.092;6.828;2023-05-17T13:59:11;18.90;1.00
20839;DHT22;10580;51.092;6.828;2023-05-17T14:01:36;18.80;1.00
20839;DHT22;10580;51.092;6.828;2023-05-17T14:04:02;18.70;1.00
20839;DHT22;10580;51.092;6.828;2023-05-17T14:06:28;18.70;1.00
20839;DHT22;10580;51.092;6.828;2023-05-17T14:08:54;18.90;1.00
20839;DHT22;10580;51.092;6.828;2023-05-17T14:11:21;19.00;1.00
20839;DHT22;10580;51.092;6.828;2023-05-17T14:13:47;19.00;1.00
20839;DHT22;10580;51.092;6.828;2023-05-17T14:16:18;19.00;1.00
20839;DHT22;10580;51.092;6.828;2023-05-17T14:18:44;19.00;1.00
20839;DHT22;10580;51.092;6.828;2023-05-17T14:21:10;18.50;1.00
20839;DHT22;10580;51.092;6.828;2023-05-17T14:23:50;18.30;1.00
20839;DHT22;10580;51.092;6.828;2023-05-17T14:26:16;18.30;1.00
20839;DHT22;10580;51.092;6.828;2023-05-17T14:28:42;18.60;1.00
20839;DHT22;10580;51.092;6.828;2023-05-17T16:03:31;16.90;1.00
20839;DHT22;10580;51.092;6.828;2023-05-17T16:05:57;17.00;1.00
20839;DHT22;10580;51.092;6.828;2023-05-17T16:08:25;17.10;1.00
20839;DHT22;10580;51.092;6.828;2023-05-17T16:11:20;17.10;1.00
20839;DHT22;10580;51.092;6.828;2023-05-17T16:17:09;16.70;1.00
20839;DHT22;10580;51.092;6.828;2023-05-17T16:19:35;16.60;1.00
20839;DHT22;10580;51.092;6.828;2023-05-17T16:29:04;16.60;1.00
20839;DHT22;10580;51.092;6.828;2023-05-17T16:31:30;16.60;1.00
20839;DHT22;10580;51.092;6.828;2023-05-17T16:33:56;16.60;1.00
20839;DHT22;10580;51.092;6.828;2023-05-17T16:52:45;16.20;1.00
20839;DHT22;10580;51.092;6.828;2023-05-17T16:55:11;16.10;1.00
20839;DHT22;10580;51.092;6.828;2023-05-17T16:57:42;16.00;1.00
20839;DHT22;10580;51.092;6.828;2023-05-17T17:00:16;16.00;1.00
20839;DHT22;10580;51.092;6.828;2023-05-17T17:03:05;16.10;1.00
20839;DHT22;10580;51.092;6.828;2023-05-17T17:05:31;16.00;1.00
20839;DHT22;10580;51.092;6.828;2023-05-17T17:07:57;16.00;1.00
20839;DHT22;10580;51.092;6.828;2023-05-17T17:10:31;15.80;1.00
20839;DHT22;10580;51.092;6.828;2023-05-17T17:13:12;15.80;1.00
20839;DHT22;10580;51.092;6.828;2023-05-17T17:15:38;15.70;1.00
20839;DHT22;10580;51.092;6.828;2023-05-17T17:18:03;15.60;1.00
20839;DHT22;10580;51.092;6.828;2023-05-17T17:20:29;15.60;1.00
20839;DHT22;10580;51.092;6.828;2023-05-17T17:23:03;15.60;1.00
20839;DHT22;10580;51.092;6.828;2023-05-17T17:25:35;15.60;1.00
20839;DHT22;10580;51.092;6.828;2023-05-17T17:28:38;15.60;1.00
20839;DHT22;10580;51.092;6.828;2023-05-17T17:31:04;15.50;1.00
20839;DHT22;10580;51.092;6.828;2023-05-17T17:33:37;15.40;1.00
20839;DHT22;10580;51.092;6.828;2023-05-17T17:36:16;15.30;1.00
20839;DHT22;10580;51.092;6.828;2023-05-17T17:38:45;15.20;1.00
20839;DHT22;10580;51.092;6.828;2023-05-17T17:41:12;15.20;1.00
20839;DHT22;10580;51.092;6.828;2023-05-17T17:43:46;15.10;1.00
20839;DHT22;10580;51.092;6.828;2023-05-17T17:46:13;15.00;1.00
20839;DHT22;10580;51.092;6.828;2023-05-17T17:51:15;14.90;1.00
20839;DHT22;10580;51.092;6.828;2023-05-17T17:53:40;14.90;1.00
20839;DHT22;10580;51.092;6.828;2023-05-17T17:56:40;14.80;1.00
20839;DHT22;10580;51.092;6.828;2023-05-17T18:11:52;14.60;1.00
20839;DHT22;10580;51.092;6.828;2023-05-17T18:14:37;14.60;1.00
20839;DHT22;10580;51.092;6.828;2023-05-17T18:17:03;14.60;1.00
20839;DHT22;10580;51.092;6.828;2023-05-17T18:20:21;14.50;1.00
20839;DHT22;10580;51.092;6.828;2023-05-17T18:23:38;14.50;1.00
20839;DHT22;10580;51.092;6.828;2023-05-17T18:30:08;14.30;1.00
20839;DHT22;10580;51.092;6.828;2023-05-17T18:33:13;14.20;1.00
20839;DHT22;10580;51.092;6.828;2023-05-17T18:36:19;14.10;1.00
20839;DHT22;10580;51.092;6.828;2023-05-17T18:41:57;13.90;1.00
20839;DHT22;10580;51.092;6.828;2023-05-17T18:44:54;13.70;1.00
20839;DHT22;10580;51.092;6.828;2023-05-17T18:54:46;13.40;1.00
20839;DHT22;10580;51.092;6.828;2023-05-17T19:22:21;12.60;1.00
20839;DHT22;10580;51.092;6.828;2023-05-17T19:24:50;12.50;1.00
20839;DHT22;10580;51.092;6.828;2023-05-17T19:27:24;12.40;1.00
20839;DHT22;10580;51.092;6.828;2023-05-17T19:33:17;12.20;1.00
20839;DHT22;10580;51.092;6.828;2023-05-17T19:39:20;12.10;1.00
20839;DHT22;10580;51.092;6.828;2023-05-17T19:42:18;12.00;1.00
20839;DHT22;10580;51.092;6.828;2023-05-17T19:44:53;11.90;1.00
20839;DHT22;10580;51.092;6.828;2023-05-17T19:47:19;11.90;1.00
20839;DHT22;10580;51.092;6.828;2023-05-17T19:49:47;11.80;1.00
20839;DHT22;10580;51.092;6.828;2023-05-17T19:52:25;11.80;1.00
20839;DHT22;10580;51.092;6.828;2023-05-17T19:54:54;11.70;1.00
20839;DHT22;10580;51.092;6.828;2023-05-17T19:57:20;11.60;1.00
20839;DHT22;10580;51.092;6.828;2023-05-17T19:59:49;11.60;1.00
20839;DHT22;10580;51.092;6.828;2023-05-17T20:02:15;11.50;1.00
20839;DHT22;10580;51.092;6.828;2023-05-17T20:04:40;11.40;1.00
20839;DHT22;10580;51.092;6.828;2023-05-17T20:07:06;11.40;1.00
20839;DHT22;10580;51.092;6.828;2023-05-17T20:09:32;11.30;1.00
20839;DHT22;10580;51.092;6.828;2023-05-17T20:11:58;11.30;1.00
20839;DHT22;10580;51.092;6.828;2023-05-17T20:14:25;11.20;1.00
20839;DHT22;10580;51.092;6.828;2023-05-17T20:16:51;11.20;1.00
20839;DHT22;10580;51.092;6.828;2023-05-17T20:19:16;11.20;1.00
20839;DHT22;10580;51.092;6.828;2023-05-17T20:21:42;11.20;1.00
20839;DHT22;10580;51.092;6.828;2023-05-17T20:24:08;11.10;1.00
20839;DHT22;10580;51.092;6.828;2023-05-17T20:26:34;11.10;1.00
20839;DHT22;10580;51.092;6.828;2023-05-17T20:29:03;11.10;1.00
20839;DHT22;10580;51.092;6.828;2023-05-17T20:31:32;11.00;1.00
20839;DHT22;10580;51.092;6.828;2023-05-17T20:33:57;11.00;1.00
20839;DHT22;10580;51.092;6.828;2023-05-17T20:36:23;11.00;1.00
20839;DHT22;10580;51.092;6.828;2023-05-17T20:38:49;10.90;1.00
20839;DHT22;10580;51.092;6.828;2023-05-17T20:41:15;10.80;1.00
20839;DHT22;10580;51.092;6.828;2023-05-17T20:43:46;10.80;1.00
20839;DHT22;10580;51.092;6.828;2023-05-17T20:46:14;10.80;1.00
20839;DHT22;10580;51.092;6.828;2023-05-17T20:48:43;10.70;1.00
20839;DHT22;10580;51.092;6.828;2023-05-17T20:51:14;10.70;1.00
20839;DHT22;10580;51.092;6.828;2023-05-17T20:53:42;10.60;1.00
20839;DHT22;10580;51.092;6.828;2023-05-17T20:56:09;10.60;1.00
20839;DHT22;10580;51.092;6.828;2023-05-17T20:58:35;10.50;1.00
20839;DHT22;10580;51.092;6.828;2023-05-17T21:01:01;10.50;1.00
20839;DHT22;10580;51.092;6.828;2023-05-17T21:03:27;10.40;1.00
20839;DHT22;10580;51.092;6.828;2023-05-17T21:05:53;10.40;1.00
20839;DHT22;10580;51.092;6.828;2023-05-17T21:08:19;10.30;1.00
20839;DHT22;10580;51.092;6.828;2023-05-17T21:10:45;10.30;1.00
20839;DHT22;10580;51.092;6.828;2023-05-17T21:13:11;10.30;1.00
20839;DHT22;10580;51.092;6.828;2023-05-17T21:15:39;10.20;1.00
20839;DHT22;10580;51.092;6.828;2023-05-17T21:18:05;10.10;1.00
20839;DHT22;10580;51.092;6.828;2023-05-17T21:20:31;10.10;1.00
20839;DHT22;10580;51.092;6.828;2023-05-17T21:22:59;10.00;1.00
20839;DHT22;10580;51.092;6.828;2023-05-17T21:25:25;10.00;1.00
20839;DHT22;10580;51.092;6.828;2023-05-17T21:27:50;10.00;1.00
20839;DHT22;10580;51.092;6.828;2023-05-17T21:30:16;9.90;1.00
20839;DHT22;10580;51.092;6.828;2023-05-17T21:32:42;9.80;1.00
20839;DHT22;10580;51.092;6.828;2023-05-17T21:35:07;9.80;1.00
20839;DHT22;10580;51.092;6.828;2023-05-17T21:37:33;9.80;1.00
20839;DHT22;10580;51.092;6.828;2023-05-17T21:40:01;9.80;1.00
20839;DHT22;10580;51.092;6.828;2023-05-17T21:42:27;9.70;1.00
20839;DHT22;10580;51.092;6.828;2023-05-17T21:44:53;9.70;1.00
20839;DHT22;10580;51.092;6.828;2023-05-17T21:47:18;9.70;1.00
20839;DHT22;10580;51.092;6.828;2023-05-17T21:49:44;9.60;1.00
20839;DHT22;10580;51.092;6.828;2023-05-17T21:52:10;9.50;1.00
20839;DHT22;10580;51.092;6.828;2023-05-17T21:54:35;9.60;1.00
20839;DHT22;10580;51.092;6.828;2023-05-17T21:57:01;9.50;1.00
20839;DHT22;10580;51.092;6.828;2023-05-17T21:59:27;9.50;1.00
20839;DHT22;10580;51.092;6.828;2023-05-17T22:01:53;9.50;1.00
20839;DHT22;10580;51.092;6.828;2023-05-17T22:04:19;9.40;1.00
20839;DHT22;10580;51.092;6.828;2023-05-17T22:06:45;9.30;1.00
20839;DHT22;10580;51.092;6.828;2023-05-17T22:09:11;9.30;1.00
20839;DHT22;10580;51.092;6.828;2023-05-17T22:11:36;9.30;1.00
20839;DHT22;10580;51.092;6.828;2023-05-17T22:14:03;9.20;1.00
20839;DHT22;10580;51.092;6.828;2023-05-17T22:16:33;9.20;1.00
20839;DHT22;10580;51.092;6.828;2023-05-17T22:18:59;9.20;1.00
20839;DHT22;10580;51.092;6.828;2023-05-17T22:21:27;9.10;1.00
20839;DHT22;10580;51.092;6.828;2023-05-17T22:23:54;9.10;1.00
20839;DHT22;10580;51.092;6.828;2023-05-17T22:26:21;9.00;1.00
20839;DHT22;10580;51.092;6.828;2023-05-17T22:28:47;9.00;1.00
20839;DHT22;10580;51.092;6.828;2023-05-17T22:31:13;8.90;1.00
20839;DHT22;10580;51.092;6.828;2023-05-17T22:33:43;8.90;1.00
20839;DHT22;10580;51.092;6.828;2023-05-17T22:36:09;8.80;1.00
20839;DHT22;10580;51.092;6.828;2023-05-17T22:38:42;8.80;1.00